Billie H — WCY4992 — position and weather

sailwx.info

Track history (hours):
 
Tides and Currents Weather Stations Pressure Air Temp Water Temp Dewpoint Dewpoint Depression Visibility Wind Speed Wind Dir Waves Ship Positions

Billie H

Owner: BOYER TOWING INC, KETCHIKAN, AK. More information available from US FCC via Universal Licensing System and Coast Guard Vessel Documentation Center.

Last reported at 2015-May-25 10:33 UTC. Time now 2015-May-27 18:01 UTC.
Position N 52°25' W 128°29'.

Type: Tug. MMSI: 366751770.

Date/timePositionNaut miles runAvg speedWind from/ knotsBaromVisibWave heightAir tempDewpointWater temp
2015-May-25 10:33N 52°25' W 128°29'8 6.2
2015-May-25 09:17N 52°18' W 128°29'5 7.0
2015-May-25 08:32N 52°15' W 128°21'7 7.5
2015-May-25 07:33N 52°14' W 128°09'6 6.2
2015-May-25 06:33N 52°08' W 128°08'6 6.4
2015-May-25 05:33N 52°05' W 127°59'6 6.1
2015-May-25 04:34N 51°59' W 127°56'9 7.1
2015-May-25 03:18N 51°50' W 127°55'19 6.8
2015-May-25 00:33N 51°31' W 127°51'9 7.0
2015-May-24 23:14N 51°22' W 127°52'7 6.2
2015-May-24 22:07N 51°15' W 127°52'4 6.3
2015-May-24 21:31N 51°11' W 127°51'6 6.5
2015-May-24 20:33N 51°06' W 127°45'7 7.4
2015-May-24 19:33N 51°01' W 127°37'8 7.6
2015-May-24 18:33N 50°56' W 127°27'8 7.9
2015-May-24 17:33N 50°52' W 127°17'7 7.2
2015-May-24 16:32N 50°48' W 127°07'9 7.5
2015-May-24 15:22N 50°43' W 126°56'8 7.1
2015-May-24 14:15N 50°38' W 126°47'5 6.8
2015-May-24 13:28N 50°33' W 126°41'7 7.2
2015-May-24 12:27N 50°30' W 126°31'88 7.2
2015-May-24 00:12N 49°42' W 124°37'8 8.0
2015-May-23 23:10N 49°36' W 124°27'5 8.0
2015-May-23 22:33N 49°34' W 124°21'8 7.6
2015-May-23 21:33N 49°30' W 124°11'10 8.0
2015-May-23 20:20N 49°24' W 123°59'8 7.5
2015-May-23 19:18N 49°20' W 123°48'5 7.1
2015-May-23 18:33N 49°17' W 123°42'7 7.3
2015-May-23 17:33N 49°12' W 123°33'7 7.5
2015-May-23 16:33N 49°07' W 123°25'8 7.7
2015-May-23 15:33N 49°02' W 123°17'7 7.5
2015-May-23 14:33N 48°56' W 123°09'8 7.5
2015-May-23 13:33N 48°52' W 122°60'7 7.4
2015-May-23 12:32N 48°47' W 122°51'6 7.2
2015-May-23 11:39N 48°43' W 122°44'1 6.6
2015-May-23 11:33N 48°42' W 122°43'1 6.3
2015-May-23 11:24N 48°41' W 122°43'5 5.8
2015-May-23 10:33N 48°37' W 122°45'3 5.1
2015-May-23 09:59N 48°34' W 122°45'2 5.7
2015-May-23 09:33N 48°31' W 122°45'6 6.2
2015-May-23 08:33N 48°25' W 122°44'9 7.0
2015-May-23 07:19N 48°17' W 122°47'20 7.3
2015-May-23 04:33N 47°59' W 122°34'5 8.1
2015-May-23 03:55N 47°55' W 122°29'3 7.2
2015-May-23 03:33N 47°52' W 122°28'0 6.4
2015-May-23 03:31N 47°52' W 122°28'7 7.5
2015-May-23 02:33N 47°45' W 122°26'0 7.3
2015-May-23 02:31N 47°45' W 122°26'7 7.2
2015-May-23 01:33N 47°38' W 122°26'1 7.6
2015-May-23 01:24N 47°37' W 122°24'2 2.4
2015-May-23 00:31N 47°36' W 122°22'0 0.8
2015-May-23 00:19N 47°35' W 122°22'0 0.1
2015-May-22 23:31N 47°35' W 122°22'0 0.2
2015-May-22 23:28N 47°35' W 122°22'0 0.0
2015-May-22 22:31N 47°35' W 122°22'0 0.1
2015-May-22 22:28N 47°35' W 122°22'1 0.9
2015-May-22 21:31N 47°35' W 122°21'0 0.1
2015-May-22 21:28N 47°35' W 122°21'0 0.0
2015-May-22 20:31N 47°35' W 122°21'0 3.1
2015-May-22 20:28N 47°35' W 122°21'  
Track history (hours):
 
Tides and Currents Weather Stations Pressure Air Temp Water Temp Dewpoint Dewpoint Depression Visibility Wind Speed Wind Dir Waves Ship Positions

Billie H

Owner: BOYER TOWING INC, KETCHIKAN, AK. More information available from US FCC via Universal Licensing System and Coast Guard Vessel Documentation Center.

Last reported at 2015-May-25 10:33 UTC. Time now 2015-May-27 18:01 UTC.
Position N 52°25' W 128°29'.

Type: Tug. MMSI: 366751770.

Date/timePositionNaut miles runAvg speedWind from/ knotsBaromVisibWave heightAir tempDewpointWater temp
2015-May-25 10:33N 52°25' W 128°29'8 6.2
2015-May-25 09:17N 52°18' W 128°29'5 7.0
2015-May-25 08:32N 52°15' W 128°21'7 7.5
2015-May-25 07:33N 52°14' W 128°09'6 6.2
2015-May-25 06:33N 52°08' W 128°08'6 6.4
2015-May-25 05:33N 52°05' W 127°59'6 6.1
2015-May-25 04:34N 51°59' W 127°56'9 7.1
2015-May-25 03:18N 51°50' W 127°55'19 6.8
2015-May-25 00:33N 51°31' W 127°51'9 7.0
2015-May-24 23:14N 51°22' W 127°52'7 6.2
2015-May-24 22:07N 51°15' W 127°52'4 6.3
2015-May-24 21:31N 51°11' W 127°51'6 6.5
2015-May-24 20:33N 51°06' W 127°45'7 7.4
2015-May-24 19:33N 51°01' W 127°37'8 7.6
2015-May-24 18:33N 50°56' W 127°27'8 7.9
2015-May-24 17:33N 50°52' W 127°17'7 7.2
2015-May-24 16:32N 50°48' W 127°07'9 7.5
2015-May-24 15:22N 50°43' W 126°56'8 7.1
2015-May-24 14:15N 50°38' W 126°47'5 6.8
2015-May-24 13:28N 50°33' W 126°41'7 7.2
2015-May-24 12:27N 50°30' W 126°31'88 7.2
2015-May-24 00:12N 49°42' W 124°37'8 8.0
2015-May-23 23:10N 49°36' W 124°27'5 8.0
2015-May-23 22:33N 49°34' W 124°21'8 7.6
2015-May-23 21:33N 49°30' W 124°11'10 8.0
2015-May-23 20:20N 49°24' W 123°59'8 7.5
2015-May-23 19:18N 49°20' W 123°48'5 7.1
2015-May-23 18:33N 49°17' W 123°42'7 7.3
2015-May-23 17:33N 49°12' W 123°33'7 7.5
2015-May-23 16:33N 49°07' W 123°25'8 7.7
2015-May-23 15:33N 49°02' W 123°17'7 7.5
2015-May-23 14:33N 48°56' W 123°09'8 7.5
2015-May-23 13:33N 48°52' W 122°60'7 7.4
2015-May-23 12:32N 48°47' W 122°51'6 7.2
2015-May-23 11:39N 48°43' W 122°44'1 6.6
2015-May-23 11:33N 48°42' W 122°43'1 6.3
2015-May-23 11:24N 48°41' W 122°43'5 5.8
2015-May-23 10:33N 48°37' W 122°45'3 5.1
2015-May-23 09:59N 48°34' W 122°45'2 5.7
2015-May-23 09:33N 48°31' W 122°45'6 6.2
2015-May-23 08:33N 48°25' W 122°44'9 7.0
2015-May-23 07:19N 48°17' W 122°47'20 7.3
2015-May-23 04:33N 47°59' W 122°34'5 8.1
2015-May-23 03:55N 47°55' W 122°29'3 7.2
2015-May-23 03:33N 47°52' W 122°28'0 6.4
2015-May-23 03:31N 47°52' W 122°28'7 7.5
2015-May-23 02:33N 47°45' W 122°26'0 7.3
2015-May-23 02:31N 47°45' W 122°26'7 7.2
2015-May-23 01:33N 47°38' W 122°26'1 7.6
2015-May-23 01:24N 47°37' W 122°24'2 2.4
2015-May-23 00:31N 47°36' W 122°22'0 0.8
2015-May-23 00:19N 47°35' W 122°22'0 0.1
2015-May-22 23:31N 47°35' W 122°22'0 0.2
2015-May-22 23:28N 47°35' W 122°22'0 0.0
2015-May-22 22:31N 47°35' W 122°22'0 0.1
2015-May-22 22:28N 47°35' W 122°22'1 0.9
2015-May-22 21:31N 47°35' W 122°21'0 0.1
2015-May-22 21:28N 47°35' W 122°21'0 0.0
2015-May-22 20:31N 47°35' W 122°21'0 3.1
2015-May-22 20:28N 47°35' W 122°21'  

Dump ship's entire track history